
Distance (Route):
Temperature : -53.4°C
Humidity : 0.2%
Pressure : 0hPa| Receiver | Date | Latitude | Longitude | Direction | Speed | Altitude | Climb | Temperature | Humidity | Pressure | Voltage | Killtimer | Uptime | BKT | XDATA |
|---|---|---|---|---|---|---|---|---|---|---|---|---|---|---|---|
| OM5KV | 2026-09-02 06:39:51 | 44.79680 | 21.13491 | 328° | 11km/h | 21978m | -40.6m/s | -53.4°C | 0.2% | 0hPa | 5.4V | 00:00:00 | 00:00:00 | 00:00:00 | |
| OM5KV | 2026-09-02 06:39:43 | 44.79663 | 21.13489 | 15° | 7km/h | 22263m | -41.3m/s | -53.2°C | 0.2% | 0hPa | 5.4V | 00:00:00 | 00:00:00 | 00:00:00 | |
| OM5KV | 2026-09-02 06:39:31 | 44.79662 | 21.13495 | 0° | 0km/h | 22786m | -43.4m/s | -53.0°C | 0.4% | 0hPa | 5.4V | 00:00:00 | 00:00:00 | 00:00:00 | |
| OM5KV | 2026-09-02 06:39:21 | 44.79648 | 21.13494 | 46° | 9km/h | 23222m | -41.6m/s | -53.2°C | 0.7% | 0hPa | 5.4V | 00:00:00 | 00:00:00 | 00:00:00 | |
| OM5KV | 2026-09-02 06:39:11 | 44.79649 | 21.13491 | 248° | 2km/h | 23608m | -42.3m/s | -52.4°C | 0.8% | 0hPa | 5.4V | 00:00:00 | 00:00:00 | 00:00:00 | |
| OM5KV | 2026-09-02 06:38:55 | 44.79673 | 21.13514 | 278° | 9km/h | 24306m | -43.0m/s | -50.3°C | 0.7% | 0hPa | 5.4V | 00:00:00 | 00:00:00 | 00:00:00 | |
| OM5KV | 2026-09-02 06:38:48 | 44.79668 | 21.13531 | 262° | 4km/h | 24606m | -44.1m/s | -50.0°C | 0.8% | 0hPa | 5.4V | 00:00:00 | 00:00:00 | 00:00:00 | |
| OM5KV | 2026-09-02 06:38:38 | 44.79680 | 21.13550 | 253° | 15km/h | 25027m | -46.3m/s | -49.3°C | 0.8% | 0hPa | 5.4V | 00:00:00 | 00:00:00 | 00:00:00 | |
| OM5KV | 2026-09-02 06:38:33 | 44.79684 | 21.13575 | 271° | 13km/h | 25258m | -45.4m/s | -49.9°C | 1.1% | 0hPa | 5.4V | 00:00:00 | 00:00:00 | 00:00:00 | |
| OM5KV | 2026-09-02 06:38:27 | 44.79680 | 21.13589 | 77° | 4km/h | 25522m | -45.4m/s | -50.2°C | 1.5% | 0hPa | 5.4V | 00:00:00 | 00:00:00 | 00:00:00 | |
| OM5KV | 2026-09-02 06:38:17 | 44.79684 | 21.13589 | 40° | 5km/h | 25960m | -44.5m/s | -48.4°C | 1.4% | 0hPa | 5.4V | 00:00:00 | 00:00:00 | 00:00:00 | |
| OM5KV | 2026-09-02 06:37:22 | 44.79671 | 21.13573 | 341° | 2km/h | 28762m | -70.9m/s | -41.6°C | 1.7% | 0hPa | 5.4V | 00:00:00 | 00:00:00 | 00:00:00 | |
| OM5KV | 2026-09-02 06:37:17 | 44.79676 | 21.13567 | 102° | 7km/h | 29125m | -70.9m/s | -42.4°C | 2.1% | 0hPa | 5.4V | 00:00:00 | 00:00:00 | 00:00:00 | |
| OM5KV | 2026-09-02 06:37:09 | 44.79669 | 21.13567 | 119° | 11km/h | 29641m | -52.8m/s | -42.4°C | 2.3% | 0hPa | 5.4V | 00:00:00 | 00:00:00 | 00:00:00 | |
| OM5KV | 2026-09-02 06:36:52 | 44.79678 | 21.13509 | 300° | 15km/h | 29888m | 8.2m/s | -42.3°C | 2.4% | 0hPa | 5.4V | 00:00:00 | 00:00:00 | 00:00:00 | |
| OM5KV | 2026-09-02 06:36:44 | 44.79680 | 21.13528 | 114° | 26km/h | 29826m | 8.1m/s | -42.4°C | 2.4% | 0hPa | 5.4V | 00:00:00 | 00:00:00 | 00:00:00 | |
| OM5KV | 2026-09-02 06:36:37 | 44.79676 | 21.13534 | 332° | 20km/h | 29780m | 3.6m/s | -42.4°C | 2.4% | 0hPa | 5.4V | 00:00:00 | 00:00:00 | 00:00:00 | |
| OM5KV | 2026-09-02 06:36:30 | 44.79693 | 21.13523 | 165° | 7km/h | 29731m | 8.2m/s | -42.5°C | 2.4% | 0hPa | 5.4V | 00:00:00 | 00:00:00 | 00:00:00 | |
| OM5KV | 2026-09-02 06:36:23 | 44.79667 | 21.13543 | 239° | 9km/h | 29680m | 5.8m/s | -42.5°C | 2.4% | 0hPa | 5.4V | 00:00:00 | 00:00:00 | 00:00:00 | |
| OM5KV | 2026-09-02 06:36:18 | 44.79680 | 21.13521 | 61° | 9km/h | 29647m | 6.0m/s | -42.3°C | 2.4% | 0hPa | 5.4V | 00:00:00 | 00:00:00 | 00:00:00 | |
| OM5KV | 2026-09-02 06:36:13 | 44.79660 | 21.13551 | 319° | 22km/h | 29609m | 2.7m/s | -42.4°C | 2.4% | 0hPa | 5.4V | 00:00:00 | 00:00:00 | 00:00:00 | |
| OM5KV | 2026-09-02 06:36:07 | 44.79673 | 21.13544 | 114° | 15km/h | 29565m | 6.5m/s | -42.3°C | 2.4% | 0hPa | 5.4V | 00:00:00 | 00:00:00 | 00:00:00 | |
| OM5KV | 2026-09-02 06:36:01 | 44.79651 | 21.13572 | 269° | 18km/h | 29524m | 4.1m/s | -42.5°C | 2.4% | 0hPa | 5.4V | 00:00:00 | 00:00:00 | 00:00:00 | |
| OM5KV | 2026-09-02 06:35:55 | 44.79654 | 21.13564 | 325° | 7km/h | 29477m | 7.3m/s | -42.4°C | 2.4% | 0hPa | 5.4V | 00:00:00 | 00:00:00 | 00:00:00 | |
| OM5KV | 2026-09-02 06:35:39 | 44.79645 | 21.13590 | 205° | 13km/h | 29367m | 6.6m/s | -42.8°C | 2.4% | 0hPa | 5.4V | 00:00:00 | 00:00:00 | 00:00:00 | |
| OM5KV | 2026-09-02 06:35:27 | 44.79671 | 21.13580 | 168° | 42km/h | 29281m | 9.1m/s | -43.1°C | 2.5% | 0hPa | 5.4V | 00:00:00 | 00:00:00 | 00:00:00 | |
| OM5KV | 2026-09-02 06:35:22 | 44.79703 | 21.13547 | 140° | 7km/h | 29247m | 8.7m/s | -43.2°C | 2.5% | 0hPa | 5.4V | 00:00:00 | 00:00:00 | 00:00:00 | |
| OM5KV | 2026-09-02 06:35:16 | 44.79708 | 21.13542 | 151° | 18km/h | 29203m | 8.5m/s | -43.2°C | 2.5% | 0hPa | 5.4V | 00:00:00 | 00:00:00 | 00:00:00 | |
| OM5KV | 2026-09-02 06:35:10 | 44.79731 | 21.13509 | 82° | 5km/h | 29165m | 6.6m/s | -43.2°C | 2.5% | 0hPa | 5.4V | 00:00:00 | 00:00:00 | 00:00:00 | |
| OM5KV | 2026-09-02 06:35:04 | 44.79745 | 21.13512 | 115° | 20km/h | 29121m | 6.3m/s | -43.2°C | 2.5% | 0hPa | 5.4V | 00:00:00 | 00:00:00 | 00:00:00 | |
| OM5KV | 2026-09-02 06:34:59 | 44.79761 | 21.13479 | 124° | 11km/h | 29086m | 7.2m/s | -43.3°C | 2.5% | 0hPa | 5.4V | 00:00:00 | 00:00:00 | 00:00:00 | |
| OE3JTB-15 | 2026-09-02 06:34:47 | 44.79760 | 21.13454 | 334° | 15km/h | 29001m | 8.2m/s | -42.5°C | 0% | 0hPa | 5.4V | 00:00:00 | 00:00:00 | 00:00:00 | |
| OM5KV | 2026-09-02 06:34:43 | 44.79754 | 21.13473 | 297° | 9km/h | 28973m | 7.3m/s | -42.8°C | 2.4% | 0hPa | 5.4V | 00:00:00 | 00:00:00 | 00:00:00 | |
| OM5KV | 2026-09-02 06:34:31 | 44.79756 | 21.13472 | 211° | 15km/h | 28889m | 6.4m/s | -42.6°C | 62.7% | 0hPa | 5.4V | 00:00:00 | 00:00:00 | 00:00:00 | |
| OM5KV | 2026-09-02 06:34:26 | 44.79757 | 21.13453 | 80° | 18km/h | 28854m | 8.0m/s | -42.4°C | 2.2% | 0hPa | 5.4V | 00:00:00 | 00:00:00 | 00:00:00 | |
| OM5KV | 2026-09-02 06:34:19 | 44.79755 | 21.13458 | 156° | 7km/h | 28805m | 8.1m/s | -42.2°C | 2.1% | 0hPa | 5.4V | 00:00:00 | 00:00:00 | 00:00:00 | |
| OM5KV | 2026-09-02 06:34:14 | 44.79769 | 21.13449 | 58° | 11km/h | 28768m | 7.9m/s | -42.2°C | 2.1% | 0hPa | 5.4V | 00:00:00 | 00:00:00 | 00:00:00 | |
| OM5KV | 2026-09-02 06:34:09 | 44.79766 | 21.13438 | 141° | 5km/h | 28733m | 7.2m/s | -42.3°C | 2.0% | 0hPa | 5.4V | 00:00:00 | 00:00:00 | 00:00:00 | |
| OM5KV | 2026-09-02 06:34:04 | 44.79774 | 21.13442 | 191° | 20km/h | 28698m | 4.8m/s | -42.4°C | 2.0% | 0hPa | 5.4V | 00:00:00 | 00:00:00 | 00:00:00 | |
| OM5KV | 2026-09-02 06:33:58 | 44.79788 | 21.13416 | 109° | 13km/h | 28655m | 7.3m/s | -43.0°C | 2.1% | 0hPa | 5.4V | 00:00:00 | 00:00:00 | 00:00:00 | |
| OM5KV | 2026-09-02 06:33:52 | 44.79806 | 21.13433 | 204° | 29km/h | 28611m | 6.2m/s | -43.5°C | 2.2% | 0hPa | 5.4V | 00:00:00 | 00:00:00 | 00:00:00 | |
| OM5KV | 2026-09-02 06:33:47 | 44.79825 | 21.13403 | 91° | 33km/h | 28575m | 7.1m/s | -43.7°C | 2.3% | 0hPa | 5.4V | 00:00:00 | 00:00:00 | 00:00:00 | |
| OM5KV | 2026-09-02 06:33:41 | 44.79847 | 21.13387 | 213° | 16km/h | 28533m | 7.6m/s | -44.1°C | 2.4% | 0hPa | 5.4V | 00:00:00 | 00:00:00 | 00:00:00 | |
| OM5KV | 2026-09-02 06:33:35 | 44.79858 | 21.13362 | 109° | 26km/h | 28492m | 7.2m/s | -44.0°C | 2.3% | 0hPa | 5.4V | 00:00:00 | 00:00:00 | 00:00:00 | |
| OM5KV | 2026-09-02 06:33:29 | 44.79876 | 21.13348 | 127° | 11km/h | 28449m | 5.7m/s | -44.0°C | 2.3% | 0hPa | 5.4V | 00:00:00 | 00:00:00 | 00:00:00 | |
| OE3JTB-15 | 2026-09-02 06:33:28 | 44.79878 | 21.13345 | 122° | 15km/h | 28441m | 7.6m/s | -43.6°C | 0% | 0hPa | 5.4V | 00:00:00 | 00:00:00 | 00:00:00 | |
| OM5KV | 2026-09-02 06:33:22 | 44.79881 | 21.13325 | 50° | 7km/h | 28401m | 5.8m/s | -44.1°C | 2.2% | 0hPa | 5.4V | 00:00:00 | 00:00:00 | 00:00:00 | |
| OM5KV | 2026-09-02 06:33:17 | 44.79891 | 21.13314 | 114° | 15km/h | 28371m | 6.1m/s | -44.0°C | 2.2% | 0hPa | 5.4V | 00:00:00 | 00:00:00 | 00:00:00 | |
| OM5KV | 2026-09-02 06:33:12 | 44.79875 | 21.13306 | 23° | 11km/h | 28332m | 7.4m/s | -44.0°C | 2.2% | 0hPa | 5.4V | 00:00:00 | 00:00:00 | 00:00:00 | |
| OM5KV | 2026-09-02 06:33:06 | 44.79875 | 21.13302 | 20° | 5km/h | 28294m | 8.0m/s | -44.1°C | 2.2% | 0hPa | 5.4V | 00:00:00 | 00:00:00 | 00:00:00 | |
| OM5KV | 2026-09-02 06:33:00 | 44.79844 | 21.13302 | 334° | 11km/h | 28253m | 7.1m/s | -44.1°C | 2.1% | 0hPa | 5.4V | 00:00:00 | 00:00:00 | 00:00:00 | |
| OE3JTB-15 | 2026-09-02 06:32:59 | 44.79843 | 21.13303 | 130° | 16km/h | 28244m | 8.8m/s | -43.7°C | 0% | 0hPa | 5.4V | 00:00:00 | 00:00:00 | 00:00:00 | |
| OM5KV | 2026-09-02 06:32:48 | 44.79830 | 21.13276 | 0° | 0km/h | 28172m | 5.8m/s | -44.1°C | 2.1% | 0hPa | 5.4V | 00:00:00 | 00:00:00 | 00:00:00 | |
| OM5KV | 2026-09-02 06:32:42 | 44.79829 | 21.13247 | 16° | 16km/h | 28129m | 8.3m/s | -44.2°C | 2.1% | 0hPa | 5.4V | 00:00:00 | 00:00:00 | 00:00:00 | |
| OM5KV | 2026-09-02 06:32:36 | 44.79809 | 21.13260 | 63° | 7km/h | 28088m | 7.9m/s | -44.7°C | 2.2% | 0hPa | 5.4V | 00:00:00 | 00:00:00 | 00:00:00 | |
| LZ4TU-5 | 2026-09-02 06:32:34 | 44.79806 | 21.13253 | 57° | 18km/h | 28074m | 5.2m/s | -44.8°C | 2.2% | 0hPa | 5.4V | 00:00:00 | 00:00:00 | 00:00:00 | |
| OE3JTB-15 | 2026-09-02 06:32:30 | 44.79794 | 21.13235 | 1° | 18km/h | 28047m | 7.1m/s | -44.5°C | 0% | 0hPa | 5.4V | 00:00:00 | 00:00:00 | 00:00:00 | |
| LZ4TU-5 | 2026-09-02 06:32:29 | 44.79787 | 21.13236 | 353° | 29km/h | 28038m | 9.1m/s | -44.9°C | 2.2% | 0hPa | 5.4V | 00:00:00 | 00:00:00 | 00:00:00 | |
| OM5KV | 2026-09-02 06:32:25 | 44.79766 | 21.13240 | 80° | 5km/h | 28013m | 6.6m/s | -45.0°C | 2.2% | 0hPa | 5.4V | 00:00:00 | 00:00:00 | 00:00:00 | |
| OM5KV | 2026-09-02 06:32:20 | 44.79760 | 21.13227 | 351° | 9km/h | 27979m | 8.0m/s | -45.0°C | 2.2% | 0hPa | 5.4V | 00:00:00 | 00:00:00 | 00:00:00 | |
| OM5KV | 2026-09-02 06:32:08 | 44.79732 | 21.13229 | 294° | 20km/h | 27899m | 8.7m/s | -45.2°C | 2.2% | 0hPa | 5.4V | 00:00:00 | 00:00:00 | 00:00:00 | |
| OE3JTB-15 | 2026-09-02 06:32:01 | 44.79691 | 21.13243 | 93° | 20km/h | 27850m | 7.9m/s | -44.7°C | 0% | 0hPa | 5.4V | 00:00:00 | 00:00:00 | 00:00:00 | |
| OM5KV | 2026-09-02 06:31:57 | 44.79702 | 21.13250 | 287° | 18km/h | 27824m | 6.5m/s | -45.1°C | 2.2% | 0hPa | 5.5V | 00:00:00 | 00:00:00 | 00:00:00 | |
| OM5KV | 2026-09-02 06:31:51 | 44.79666 | 21.13277 | 321° | 20km/h | 27785m | 9.3m/s | -45.1°C | 2.2% | 0hPa | 5.5V | 00:00:00 | 00:00:00 | 00:00:00 | |
| OM5KV | 2026-09-02 06:31:46 | 44.79682 | 21.13295 | 241° | 9km/h | 27749m | 3.5m/s | -45.0°C | 2.1% | 0hPa | 5.5V | 00:00:00 | 00:00:00 | 00:00:00 | |
| OM5KV | 2026-09-02 06:31:34 | 44.79663 | 21.13351 | 253° | 26km/h | 27665m | 6.4m/s | -45.1°C | 2.1% | 0hPa | 5.5V | 00:00:00 | 00:00:00 | 00:00:00 | |
| OE3JTB-15 | 2026-09-02 06:31:31 | 44.79659 | 21.13369 | 326° | 16km/h | 27643m | 7.4m/s | -44.7°C | 0% | 0hPa | 5.5V | 00:00:00 | 00:00:00 | 00:00:00 | |
| OM5KV | 2026-09-02 06:31:23 | 44.79665 | 21.13382 | 216° | 16km/h | 27585m | 8.7m/s | -45.3°C | 2.0% | 0hPa | 5.5V | 00:00:00 | 00:00:00 | 00:00:00 | |
| OM5KV | 2026-09-02 06:31:17 | 44.79651 | 21.13412 | 3° | 18km/h | 27546m | 5.2m/s | -45.4°C | 2.1% | 0hPa | 5.5V | 00:00:00 | 00:00:00 | 00:00:00 | |
| OM5KV | 2026-09-02 06:31:12 | 44.79659 | 21.13412 | 175° | 15km/h | 27508m | 5.6m/s | -45.4°C | 2.0% | 0hPa | 5.5V | 00:00:00 | 00:00:00 | 00:00:00 | |
| OM5KV | 2026-09-02 06:31:07 | 44.79657 | 21.13430 | 334° | 26km/h | 27474m | 5.2m/s | -45.7°C | 2.1% | 0hPa | 5.5V | 00:00:00 | 00:00:00 | 00:00:00 | |
| OE3JTB-15 | 2026-09-02 06:31:02 | 44.79637 | 21.13422 | 131° | 13km/h | 27440m | 8.1m/s | -45.2°C | 0% | 0hPa | 5.5V | 00:00:00 | 00:00:00 | 00:00:00 | |
| OM5KV | 2026-09-02 06:30:56 | 44.79650 | 21.13449 | 335° | 18km/h | 27398m | 7.9m/s | -45.6°C | 2.0% | 0hPa | 5.5V | 00:00:00 | 00:00:00 | 00:00:00 | |
| OM5KV | 2026-09-02 06:30:49 | 44.79632 | 21.13447 | 203° | 24km/h | 27352m | 5.4m/s | -45.4°C | 1.9% | 0hPa | 5.5V | 00:00:00 | 00:00:00 | 00:00:00 | |
| OM5KV | 2026-09-02 06:30:38 | 44.79631 | 21.13495 | 216° | 15km/h | 27275m | 5.6m/s | -45.8°C | 1.9% | 0hPa | 5.5V | 00:00:00 | 00:00:00 | 00:00:00 | |
| LZ4TU-5 | 2026-09-02 06:30:33 | 44.79639 | 21.13498 | 324° | 9km/h | 27240m | 6.8m/s | -46.0°C | 1.9% | 0hPa | 5.5V | 00:00:00 | 00:00:00 | 00:00:00 | |
| OM5KV | 2026-09-02 06:30:32 | 44.79637 | 21.13502 | 298° | 16km/h | 27233m | 7.7m/s | -45.9°C | 1.9% | 0hPa | 5.5V | 00:00:00 | 00:00:00 | 00:00:00 | |
| OM5KV | 2026-09-02 06:30:27 | 44.79637 | 21.13513 | 85° | 7km/h | 27200m | 8.2m/s | -46.0°C | 1.8% | 0hPa | 5.5V | 00:00:00 | 00:00:00 | 00:00:00 | |
| OM5KV | 2026-09-02 06:30:21 | 44.79639 | 21.13508 | 285° | 18km/h | 27163m | 7.4m/s | -46.6°C | 1.9% | 0hPa | 5.5V | 00:00:00 | 00:00:00 | 00:00:00 | |
| OE3JTB-15 | 2026-09-02 06:30:17 | 44.79628 | 21.13515 | 52° | 11km/h | 27136m | 5.8m/s | -46.1°C | 0% | 0hPa | 5.5V | 00:00:00 | 00:00:00 | 00:00:00 | |
| OM5KV | 2026-09-02 06:30:16 | 44.79627 | 21.13513 | 75° | 5km/h | 27129m | 7.1m/s | -46.7°C | 1.9% | 0hPa | 5.5V | 00:00:00 | 00:00:00 | 00:00:00 | |
| OM5KV | 2026-09-02 06:30:09 | 44.79633 | 21.13529 | 243° | 13km/h | 27083m | 8.4m/s | -47.1°C | 2.0% | 0hPa | 5.5V | 00:00:00 | 00:00:00 | 00:00:00 | |
| OM5KV | 2026-09-02 06:30:03 | 44.79647 | 21.13517 | 155° | 24km/h | 27043m | 9.4m/s | -47.3°C | 2.0% | 0hPa | 5.5V | 00:00:00 | 00:00:00 | 00:00:00 | |
| OM5KV | 2026-09-02 06:29:57 | 44.79660 | 21.13525 | 301° | 16km/h | 27007m | 3.0m/s | -47.6°C | 2.0% | 0hPa | 5.5V | 00:00:00 | 00:00:00 | 00:00:00 | |
| OM5KV | 2026-09-02 06:29:50 | 44.79660 | 21.13514 | 0° | 0km/h | 26962m | 5.1m/s | -47.9°C | 2.1% | 0hPa | 5.5V | 00:00:00 | 00:00:00 | 00:00:00 | |
| OE3JTB-15 | 2026-09-02 06:29:46 | 44.79662 | 21.13525 | 281° | 18km/h | 26933m | 6.7m/s | -47.6°C | 0% | 0hPa | 5.5V | 00:00:00 | 00:00:00 | 00:00:00 | |
| OM5KV | 2026-09-02 06:29:42 | 44.79651 | 21.13530 | 41° | 5km/h | 26910m | 6.6m/s | -48.0°C | 2.1% | 0hPa | 5.5V | 00:00:00 | 00:00:00 | 00:00:00 | |
| OM5KV | 2026-09-02 06:29:39 | 44.79660 | 21.13532 | 209° | 22km/h | 26892m | 5.5m/s | -48.0°C | 2.1% | 0hPa | 5.5V | 00:00:00 | 00:00:00 | 00:00:00 | |
| OM5KV | 2026-09-02 06:29:37 | 44.79665 | 21.13543 | 271° | 22km/h | 26877m | 5.1m/s | -48.1°C | 2.1% | 0hPa | 5.5V | 00:00:00 | 00:00:00 | 00:00:00 | |
| OM5KV | 2026-09-02 06:29:34 | 44.79661 | 21.13561 | 354° | 11km/h | 26857m | 5.3m/s | -48.0°C | 2.1% | 0hPa | 5.5V | 00:00:00 | 00:00:00 | 00:00:00 | |
| OM5KV | 2026-09-02 06:29:28 | 44.79666 | 21.13553 | 180° | 22km/h | 26816m | 7.1m/s | -47.8°C | 2.0% | 0hPa | 5.5V | 00:00:00 | 00:00:00 | 00:00:00 | |
| OM5KV | 2026-09-02 06:29:25 | 44.79677 | 21.13560 | 237° | 15km/h | 26796m | 8.3m/s | -47.8°C | 2.0% | 0hPa | 5.5V | 00:00:00 | 00:00:00 | 00:00:00 | |
| OM5KV | 2026-09-02 06:29:23 | 44.79680 | 21.13568 | 246° | 7km/h | 26785m | 4.4m/s | -47.8°C | 2.0% | 0hPa | 5.5V | 00:00:00 | 00:00:00 | 00:00:00 | |
| OM5KV | 2026-09-02 06:29:19 | 44.79679 | 21.13561 | 93° | 15km/h | 26760m | 4.1m/s | -47.6°C | 1.9% | 0hPa | 5.5V | 00:00:00 | 00:00:00 | 00:00:00 | |
| OM5KV | 2026-09-02 06:29:13 | 44.79708 | 21.13570 | 196° | 13km/h | 26719m | 6.3m/s | -47.7°C | 2.0% | 0hPa | 5.5V | 00:00:00 | 00:00:00 | 00:00:00 | |
| OM5KV | 2026-09-02 06:29:11 | 44.79712 | 21.13567 | 119° | 16km/h | 26703m | 8.4m/s | -47.7°C | 2.0% | 0hPa | 5.5V | 00:00:00 | 00:00:00 | 00:00:00 | |
| OM5KV | 2026-09-02 06:29:02 | 44.79743 | 21.13534 | 165° | 31km/h | 26645m | 3.9m/s | -47.7°C | 1.9% | 0hPa | 5.5V | 00:00:00 | 00:00:00 | 00:00:00 | |
| OM5KV | 2026-09-02 06:29:00 | 44.79753 | 21.13525 | 106° | 16km/h | 26631m | 8.1m/s | -47.8°C | 2.0% | 0hPa | 5.5V | 00:00:00 | 00:00:00 | 00:00:00 | |
| OM5KV | 2026-09-02 06:28:57 | 44.79741 | 21.13500 | 51° | 37km/h | 26608m | 7.6m/s | -47.9°C | 2.0% | 0hPa | 5.5V | 00:00:00 | 00:00:00 | 00:00:00 | |
| OM5KV | 2026-09-02 06:28:53 | 44.79740 | 21.13469 | 159° | 16km/h | 26584m | 9.9m/s | -48.0°C | 2.0% | 0hPa | 5.5V | 00:00:00 | 00:00:00 | 00:00:00 | |
| LZ4TU-5 | 2026-09-02 06:28:52 | 44.79745 | 21.13469 | 204° | 22km/h | 26575m | 8.7m/s | -47.9°C | 2.0% | 0hPa | 5.5V | 00:00:00 | 00:00:00 | 00:00:00 | |
| OM5KV | 2026-09-02 06:28:51 | 44.79750 | 21.13473 | 213° | 24km/h | 26570m | 5.1m/s | -47.9°C | 2.0% | 0hPa | 5.5V | 00:00:00 | 00:00:00 | 00:00:00 | |
| OM5KV | 2026-09-02 06:28:47 | 44.79751 | 21.13459 | 59° | 33km/h | 26543m | 7.6m/s | -47.8°C | 2.0% | 0hPa | 5.5V | 00:00:00 | 00:00:00 | 00:00:00 | |
| OM5KV | 2026-09-02 06:28:46 | 44.79747 | 21.13449 | 50° | 33km/h | 26536m | 7.6m/s | -47.7°C | 2.0% | 0hPa | 5.5V | 00:00:00 | 00:00:00 | 00:00:00 | |
| OM5KV | 2026-09-02 06:28:42 | 44.79737 | 21.13430 | 142° | 9km/h | 26511m | 7.5m/s | -47.8°C | 1.9% | 0hPa | 5.5V | 00:00:00 | 00:00:00 | 00:00:00 | |
| OM5KV | 2026-09-02 06:28:39 | 44.79744 | 21.13430 | 0° | 0km/h | 26494m | 7.2m/s | -47.8°C | 2.0% | 0hPa | 5.5V | 00:00:00 | 00:00:00 | 00:00:00 | |
| OM5KV | 2026-09-02 06:28:37 | 44.79736 | 21.13429 | 13° | 29km/h | 26480m | 7.0m/s | -47.9°C | 2.0% | 0hPa | 5.5V | 00:00:00 | 00:00:00 | 00:00:00 | |
| OM5KV | 2026-09-02 06:28:33 | 44.79713 | 21.13410 | 60° | 20km/h | 26454m | 5.8m/s | -47.8°C | 2.0% | 0hPa | 5.5V | 00:00:00 | 00:00:00 | 00:00:00 | |
| OM5KV | 2026-09-02 06:28:28 | 44.79718 | 21.13397 | 287° | 15km/h | 26420m | 7.8m/s | -47.8°C | 1.9% | 0hPa | 5.5V | 00:00:00 | 00:00:00 | 00:00:00 | |
| OM5KV | 2026-09-02 06:28:25 | 44.79703 | 21.13408 | 7° | 22km/h | 26400m | 7.4m/s | -47.8°C | 1.9% | 0hPa | 5.5V | 00:00:00 | 00:00:00 | 00:00:00 | |
| OM5KV | 2026-09-02 06:28:22 | 44.79695 | 21.13392 | 86° | 20km/h | 26378m | 7.8m/s | -47.7°C | 1.9% | 0hPa | 5.5V | 00:00:00 | 00:00:00 | 00:00:00 | |
| OM5KV | 2026-09-02 06:28:19 | 44.79701 | 21.13375 | 160° | 18km/h | 26360m | 8.3m/s | -47.8°C | 1.9% | 0hPa | 5.5V | 00:00:00 | 00:00:00 | 00:00:00 | |
| OM5KV | 2026-09-02 06:28:13 | 44.79706 | 21.13395 | 1° | 24km/h | 26319m | 6.2m/s | -48.0°C | 1.9% | 0hPa | 5.5V | 00:00:00 | 00:00:00 | 00:00:00 | |
| OM5KV | 2026-09-02 06:28:09 | 44.79701 | 21.13386 | 149° | 18km/h | 26294m | 6.3m/s | -47.8°C | 1.9% | 0hPa | 5.5V | 00:00:00 | 00:00:00 | 00:00:00 | |
| OM5KV | 2026-09-02 06:28:07 | 44.79712 | 21.13377 | 151° | 24km/h | 26282m | 7.2m/s | -47.8°C | 1.9% | 0hPa | 5.5V | 00:00:00 | 00:00:00 | 00:00:00 | |
| OM5KV | 2026-09-02 06:28:04 | 44.79714 | 21.13371 | 1° | 11km/h | 26261m | 8.0m/s | -47.7°C | 1.8% | 0hPa | 5.5V | 00:00:00 | 00:00:00 | 00:00:00 | |
| OM5KV | 2026-09-02 06:27:56 | 44.79694 | 21.13359 | 135° | 16km/h | 26205m | 6.9m/s | -48.1°C | 1.9% | 0hPa | 5.5V | 00:00:00 | 00:00:00 | 00:00:00 | |
| OM5KV | 2026-09-02 06:27:50 | 44.79681 | 21.13350 | 325° | 20km/h | 26163m | 6.5m/s | -48.0°C | 1.8% | 0hPa | 5.5V | 00:00:00 | 00:00:00 | 00:00:00 | |
| OM5KV | 2026-09-02 06:27:47 | 44.79676 | 21.13355 | 96° | 7km/h | 26144m | 8.3m/s | -48.0°C | 1.8% | 0hPa | 5.5V | 00:00:00 | 00:00:00 | 00:00:00 | |
| OM5KV | 2026-09-02 06:27:44 | 44.79685 | 21.13338 | 141° | 24km/h | 26124m | 7.3m/s | -48.0°C | 1.8% | 0hPa | 5.5V | 00:00:00 | 00:00:00 | 00:00:00 | |
| OM5KV | 2026-09-02 06:27:36 | 44.79681 | 21.13346 | 221° | 9km/h | 26073m | 5.2m/s | -48.5°C | 1.9% | 0hPa | 5.5V | 00:00:00 | 00:00:00 | 00:00:00 | |
| OM5KV | 2026-09-02 06:27:34 | 44.79683 | 21.13345 | 98° | 7km/h | 26057m | 6.8m/s | -48.5°C | 1.9% | 0hPa | 5.5V | 00:00:00 | 00:00:00 | 00:00:00 | |
| OM5KV | 2026-09-02 06:27:32 | 44.79684 | 21.13340 | 134° | 7km/h | 26045m | 6.4m/s | -48.5°C | 1.9% | 0hPa | 5.5V | 00:00:00 | 00:00:00 | 00:00:00 | |
| OM5KV | 2026-09-02 06:27:25 | 44.79673 | 21.13367 | 338° | 20km/h | 26002m | 4.6m/s | -48.7°C | 1.9% | 0hPa | 5.5V | 00:00:00 | 00:00:00 | 00:00:00 | |
| OM5KV | 2026-09-02 06:27:22 | 44.79669 | 21.13379 | 243° | 16km/h | 25981m | 4.3m/s | -48.6°C | 1.9% | 0hPa | 5.5V | 00:00:00 | 00:00:00 | 00:00:00 | |
| OM5KV | 2026-09-02 06:27:16 | 44.79666 | 21.13419 | 286° | 27km/h | 25939m | 8.8m/s | -48.7°C | 1.9% | 0hPa | 5.5V | 00:00:00 | 00:00:00 | 00:00:00 | |
| OE3JTB-15 | 2026-09-02 06:27:08 | 44.79670 | 21.13451 | 224° | 13km/h | 25885m | 4.9m/s | -48.5°C | 0% | 0hPa | 5.5V | 00:00:00 | 00:00:00 | 00:00:00 | |
| OM5KV | 2026-09-02 06:27:05 | 44.79679 | 21.13465 | 222° | 11km/h | 25864m | 6.0m/s | -49.2°C | 2.0% | 0hPa | 5.5V | 00:00:00 | 00:00:00 | 00:00:00 | |
| LZ4TU-5 | 2026-09-02 06:27:01 | 44.79688 | 21.13477 | 221° | 13km/h | 25837m | 5.7m/s | -49.3°C | 1.9% | 0hPa | 5.5V | 00:00:00 | 00:00:00 | 00:00:00 | |
| OM5KV | 2026-09-02 06:26:59 | 44.79693 | 21.13479 | 163° | 9km/h | 25824m | 8.5m/s | -49.3°C | 1.9% | 0hPa | 5.5V | 00:00:00 | 00:00:00 | 00:00:00 | |
| OM5KV | 2026-09-02 06:26:58 | 44.79695 | 21.13477 | 129° | 11km/h | 25818m | 6.0m/s | -49.3°C | 1.9% | 0hPa | 5.5V | 00:00:00 | 00:00:00 | 00:00:00 | |
| LZ4TU-5 | 2026-09-02 06:26:56 | 44.79700 | 21.13472 | 156° | 13km/h | 25805m | 8.8m/s | -49.5°C | 2.0% | 0hPa | 5.5V | 00:00:00 | 00:00:00 | 00:00:00 | |
| OM5KV | 2026-09-02 06:26:41 | 44.79745 | 21.13450 | 146° | 24km/h | 25703m | 5.6m/s | -49.7°C | 2.0% | 0hPa | 5.5V | 00:00:00 | 00:00:00 | 00:00:00 | |
| OE3JTB-15 | 2026-09-02 06:26:38 | 44.79750 | 21.13442 | 355° | 15km/h | 25681m | 7.3m/s | -49.2°C | 0% | 0hPa | 5.5V | 00:00:00 | 00:00:00 | 00:00:00 | |
| OM5KV | 2026-09-02 06:26:37 | 44.79748 | 21.13442 | 352° | 9km/h | 25673m | 7.8m/s | -49.8°C | 2.0% | 0hPa | 5.6V | 00:00:00 | 00:00:00 | 00:00:00 | |
| OM5KV | 2026-09-02 06:26:36 | 44.79746 | 21.13442 | 9° | 7km/h | 25666m | 7.2m/s | -49.8°C | 2.0% | 0hPa | 5.6V | 00:00:00 | 00:00:00 | 00:00:00 | |
| OM5KV | 2026-09-02 06:26:31 | 44.79749 | 21.13436 | 160° | 15km/h | 25634m | 6.3m/s | -50.0°C | 2.1% | 0hPa | 5.6V | 00:00:00 | 00:00:00 | 00:00:00 | |
| OM5KV | 2026-09-02 06:26:30 | 44.79752 | 21.13433 | 141° | 18km/h | 25626m | 7.9m/s | -50.0°C | 2.0% | 0hPa | 5.6V | 00:00:00 | 00:00:00 | 00:00:00 | |
| OM5KV | 2026-09-02 06:26:23 | 44.79746 | 21.13408 | 31° | 18km/h | 25579m | 6.6m/s | -50.0°C | 2.1% | 0hPa | 5.6V | 00:00:00 | 00:00:00 | 00:00:00 | |
| OM5KV | 2026-09-02 06:26:20 | 44.79738 | 21.13401 | 19° | 4km/h | 25559m | 7.2m/s | -49.9°C | 2.0% | 0hPa | 5.6V | 00:00:00 | 00:00:00 | 00:00:00 | |
| OM5KV | 2026-09-02 06:26:12 | 44.79730 | 21.13395 | 311° | 15km/h | 25504m | 6.6m/s | -49.9°C | 2.0% | 0hPa | 5.6V | 00:00:00 | 00:00:00 | 00:00:00 | |
| OM5KV | 2026-09-02 06:26:07 | 44.79717 | 21.13399 | 358° | 11km/h | 25473m | 5.0m/s | -49.8°C | 2.0% | 0hPa | 5.6V | 00:00:00 | 00:00:00 | 00:00:00 | |
| OM5KV | 2026-09-02 06:26:06 | 44.79715 | 21.13399 | 24° | 7km/h | 25467m | 5.3m/s | -49.9°C | 2.0% | 0hPa | 5.6V | 00:00:00 | 00:00:00 | 00:00:00 | |
| OM5KV | 2026-09-02 06:26:01 | 44.79720 | 21.13399 | 266° | 13km/h | 25435m | 8.3m/s | -49.9°C | 2.0% | 0hPa | 5.6V | 00:00:00 | 00:00:00 | 00:00:00 | |
| OM5KV | 2026-09-02 06:25:55 | 44.79706 | 21.13434 | 269° | 5km/h | 25396m | 7.3m/s | -49.9°C | 2.0% | 0hPa | 5.6V | 00:00:00 | 00:00:00 | 00:00:00 | |
| OM5KV | 2026-09-02 06:25:54 | 44.79707 | 21.13436 | 0° | 0km/h | 25389m | 6.8m/s | -49.9°C | 2.0% | 0hPa | 5.6V | 00:00:00 | 00:00:00 | 00:00:00 | |
| OM5KV | 2026-09-02 06:25:49 | 44.79717 | 21.13449 | 262° | 22km/h | 25356m | 7.2m/s | -50.0°C | 2.0% | 0hPa | 5.6V | 00:00:00 | 00:00:00 | 00:00:00 | |
| OM5KV | 2026-09-02 06:25:48 | 44.79717 | 21.13457 | 280° | 22km/h | 25349m | 7.2m/s | -49.9°C | 2.0% | 0hPa | 5.6V | 00:00:00 | 00:00:00 | 00:00:00 | |
| OM5KV | 2026-09-02 06:25:44 | 44.79710 | 21.13489 | 289° | 22km/h | 25323m | 5.6m/s | -50.0°C | 2.0% | 0hPa | 5.6V | 00:00:00 | 00:00:00 | 00:00:00 | |
| OM5KV | 2026-09-02 06:25:37 | 44.79723 | 21.13506 | 252° | 22km/h | 25280m | 8.7m/s | -50.2°C | 2.0% | 0hPa | 5.6V | 00:00:00 | 00:00:00 | 00:00:00 | |
| OM5KV | 2026-09-02 06:25:36 | 44.79723 | 21.13514 | 282° | 24km/h | 25272m | 8.1m/s | -50.1°C | 2.0% | 0hPa | 5.6V | 00:00:00 | 00:00:00 | 00:00:00 | |
| LZ4TU-5 | 2026-09-02 06:25:32 | 44.79715 | 21.13549 | 279° | 22km/h | 25248m | 6.8m/s | -50.2°C | 2.0% | 0hPa | 5.6V | 00:00:00 | 00:00:00 | 00:00:00 | |
| OM5KV | 2026-09-02 06:25:31 | 44.79714 | 21.13555 | 269° | 15km/h | 25242m | 6.6m/s | -50.2°C | 2.1% | 0hPa | 5.6V | 00:00:00 | 00:00:00 | 00:00:00 | |
| OM5KV | 2026-09-02 06:25:30 | 44.79716 | 21.13559 | 220° | 11km/h | 25237m | 4.4m/s | -50.2°C | 2.0% | 0hPa | 5.6V | 00:00:00 | 00:00:00 | 00:00:00 | |
| LZ4TU-5 | 2026-09-02 06:25:28 | 44.79721 | 21.13561 | 181° | 11km/h | 25222m | 6.3m/s | -50.1°C | 2.0% | 0hPa | 5.6V | 00:00:00 | 00:00:00 | 00:00:00 | |
| OM5KV | 2026-09-02 06:25:26 | 44.79725 | 21.13564 | 226° | 13km/h | 25210m | 8.7m/s | -50.1°C | 2.0% | 0hPa | 5.6V | 00:00:00 | 00:00:00 | 00:00:00 | |
| OM5KV | 2026-09-02 06:25:25 | 44.79728 | 21.13568 | 228° | 24km/h | 25201m | 8.0m/s | -50.1°C | 2.0% | 0hPa | 5.6V | 00:00:00 | 00:00:00 | 00:00:00 | |
| OM5KV | 2026-09-02 06:25:20 | 44.79741 | 21.13606 | 254° | 16km/h | 25169m | 7.6m/s | -50.0°C | 2.0% | 0hPa | 5.6V | 00:00:00 | 00:00:00 | 00:00:00 | |
| OM5KV | 2026-09-02 06:25:19 | 44.79743 | 21.13610 | 213° | 9km/h | 25164m | 5.6m/s | -50.0°C | 2.0% | 0hPa | 5.6V | 00:00:00 | 00:00:00 | 00:00:00 | |
| OM5KV | 2026-09-02 06:25:15 | 44.79748 | 21.13610 | 236° | 7km/h | 25139m | 4.7m/s | -50.0°C | 2.0% | 0hPa | 5.6V | 00:00:00 | 00:00:00 | 00:00:00 | |
| OM5KV | 2026-09-02 06:25:14 | 44.79750 | 21.13613 | 225° | 13km/h | 25130m | 9.0m/s | -49.9°C | 1.9% | 0hPa | 5.6V | 00:00:00 | 00:00:00 | 00:00:00 | |
| OM5KV | 2026-09-02 06:25:09 | 44.79764 | 21.13641 | 264° | 18km/h | 25098m | 4.8m/s | -49.9°C | 1.9% | 0hPa | 5.6V | 00:00:00 | 00:00:00 | 00:00:00 | |
| OM5KV | 2026-09-02 06:25:04 | 44.79778 | 21.13643 | 161° | 22km/h | 25070m | 4.5m/s | -50.0°C | 1.9% | 0hPa | 5.6V | 00:00:00 | 00:00:00 | 00:00:00 | |
| OM5KV | 2026-09-02 06:24:53 | 44.79797 | 21.13651 | 169° | 15km/h | 24995m | 7.9m/s | -50.0°C | 1.9% | 0hPa | 5.6V | 00:00:00 | 00:00:00 | 00:00:00 | |
| OM5KV | 2026-09-02 06:24:50 | 44.79808 | 21.13650 | 170° | 13km/h | 24976m | 7.3m/s | -49.9°C | 1.9% | 0hPa | 5.6V | 00:00:00 | 00:00:00 | 00:00:00 | |
| OM5KV | 2026-09-02 06:24:47 | 44.79816 | 21.13650 | 203° | 9km/h | 24957m | 8.2m/s | -50.0°C | 1.9% | 0hPa | 5.6V | 00:00:00 | 00:00:00 | 00:00:00 | |
| OM5KV | 2026-09-02 06:24:46 | 44.79818 | 21.13651 | 0° | 0km/h | 24953m | 3.2m/s | -50.1°C | 1.9% | 0hPa | 5.6V | 00:00:00 | 00:00:00 | 00:00:00 | |
| OM5KV | 2026-09-02 06:24:44 | 44.79817 | 21.13648 | 83° | 7km/h | 24939m | 9.3m/s | -50.0°C | 1.9% | 0hPa | 5.6V | 00:00:00 | 00:00:00 | 00:00:00 | |
| OM5KV | 2026-09-02 06:24:35 | 44.79826 | 21.13643 | 230° | 16km/h | 24886m | 3.0m/s | -50.4°C | 2.0% | 0hPa | 5.6V | 00:00:00 | 00:00:00 | 00:00:00 | |
| OM5KV | 2026-09-02 06:24:25 | 44.79827 | 21.13634 | 206° | 11km/h | 24823m | 5.1m/s | -50.6°C | 2.0% | 0hPa | 5.6V | 00:00:00 | 00:00:00 | 00:00:00 | |
| OM5KV | 2026-09-02 06:24:19 | 44.79840 | 21.13635 | 174° | 16km/h | 24782m | 5.3m/s | -50.6°C | 2.0% | 0hPa | 5.6V | 00:00:00 | 00:00:00 | 00:00:00 | |
| OM5KV | 2026-09-02 06:24:18 | 44.79843 | 21.13634 | 166° | 15km/h | 24774m | 8.3m/s | -50.6°C | 2.0% | 0hPa | 5.6V | 00:00:00 | 00:00:00 | 00:00:00 | |
| OM5KV | 2026-09-02 06:24:12 | 44.79850 | 21.13645 | 286° | 7km/h | 24735m | 7.8m/s | -50.6°C | 2.0% | 0hPa | 5.6V | 00:00:00 | 00:00:00 | 00:00:00 | |
| LZ4TU-5 | 2026-09-02 06:24:01 | 44.79849 | 21.13659 | 286° | 15km/h | 24664m | 3.7m/s | -50.6°C | 1.9% | 0hPa | 5.6V | 00:00:00 | 00:00:00 | 00:00:00 | |
| OM5KV | 2026-09-02 06:23:58 | 44.79845 | 21.13678 | 283° | 20km/h | 24645m | 3.1m/s | -50.7°C | 1.9% | 0hPa | 5.6V | 00:00:00 | 00:00:00 | 00:00:00 | |
| LZ4TU-5 | 2026-09-02 06:23:57 | 44.79844 | 21.13684 | 273° | 18km/h | 24639m | 6.2m/s | -50.7°C | 2.0% | 0hPa | 5.6V | 00:00:00 | 00:00:00 | 00:00:00 | |
| OM5KV | 2026-09-02 06:23:55 | 44.79846 | 21.13690 | 156° | 7km/h | 24624m | 5.6m/s | -50.6°C | 1.9% | 0hPa | 5.6V | 00:00:00 | 00:00:00 | 00:00:00 | |
| OM5KV | 2026-09-02 06:23:54 | 44.79847 | 21.13688 | 122° | 7km/h | 24617m | 7.0m/s | -50.6°C | 1.9% | 0hPa | 5.6V | 00:00:00 | 00:00:00 | 00:00:00 | |
| OM5KV | 2026-09-02 06:23:48 | 44.79833 | 21.13711 | 296° | 31km/h | 24578m | 6.9m/s | -50.6°C | 1.9% | 0hPa | 5.6V | 00:00:00 | 00:00:00 | 00:00:00 | |
| OM5KV | 2026-09-02 06:23:42 | 44.79837 | 21.13736 | 137° | 11km/h | 24540m | 2.7m/s | -50.5°C | 1.9% | 0hPa | 5.6V | 00:00:00 | 00:00:00 | 00:00:00 | |
| OM5KV | 2026-09-02 06:23:41 | 44.79838 | 21.13733 | 133° | 9km/h | 24534m | 6.4m/s | -50.5°C | 1.9% | 0hPa | 5.6V | 00:00:00 | 00:00:00 | 00:00:00 | |
| OM5KV | 2026-09-02 06:23:36 | 44.79836 | 21.13759 | 300° | 29km/h | 24500m | 6.1m/s | -50.6°C | 1.9% | 0hPa | 5.6V | 00:00:00 | 00:00:00 | 00:00:00 | |
| OM5KV | 2026-09-02 06:23:35 | 44.79833 | 21.13767 | 303° | 24km/h | 24493m | 6.4m/s | -50.6°C | 1.9% | 0hPa | 5.6V | 00:00:00 | 00:00:00 | 00:00:00 | |
| OM5KV | 2026-09-02 06:23:30 | 44.79840 | 21.13780 | 180° | 7km/h | 24459m | 6.4m/s | -50.5°C | 1.9% | 0hPa | 5.6V | 00:00:00 | 00:00:00 | 00:00:00 | |
| OM5KV | 2026-09-02 06:23:29 | 44.79842 | 21.13780 | 221° | 9km/h | 24454m | 5.3m/s | -50.5°C | 1.9% | 0hPa | 5.6V | 00:00:00 | 00:00:00 | 00:00:00 | |
| OM5KV | 2026-09-02 06:23:20 | 44.79828 | 21.13829 | 215° | 4km/h | 24393m | 10.1m/s | -50.3°C | 1.8% | 0hPa | 5.6V | 00:00:00 | 00:00:00 | 00:00:00 | |
| OM5KV | 2026-09-02 06:23:19 | 44.79830 | 21.13830 | 180° | 15km/h | 24389m | 4.8m/s | -50.4°C | 1.8% | 0hPa | 5.6V | 00:00:00 | 00:00:00 | 00:00:00 | |
| OM5KV | 2026-09-02 06:23:14 | 44.79838 | 21.13854 | 283° | 26km/h | 24351m | 10.4m/s | -50.4°C | 1.9% | 0hPa | 5.6V | 00:00:00 | 00:00:00 | 00:00:00 | |
| OM5KV | 2026-09-02 06:23:13 | 44.79837 | 21.13863 | 269° | 26km/h | 24347m | 4.0m/s | -50.4°C | 1.9% | 0hPa | 5.6V | 00:00:00 | 00:00:00 | 00:00:00 | |
| OM5KV | 2026-09-02 06:23:07 | 44.79853 | 21.13882 | 195° | 26km/h | 24304m | 6.9m/s | -50.2°C | 1.8% | 0hPa | 5.6V | 00:00:00 | 00:00:00 | 00:00:00 | |
| OM5KV | 2026-09-02 06:23:06 | 44.79859 | 21.13886 | 223° | 26km/h | 24299m | 5.1m/s | -50.3°C | 1.8% | 0hPa | 5.6V | 00:00:00 | 00:00:00 | 00:00:00 | |
| OM5KV | 2026-09-02 06:23:00 | 44.79856 | 21.13922 | 289° | 11km/h | 24261m | 8.7m/s | -50.3°C | 1.8% | 0hPa | 5.6V | 00:00:00 | 00:00:00 | 00:00:00 | |
| OM5KV | 2026-09-02 06:22:57 | 44.79868 | 21.13932 | 193° | 27km/h | 24241m | 8.2m/s | -50.3°C | 1.8% | 0hPa | 5.6V | 00:00:00 | 00:00:00 | 00:00:00 | |
| OM5KV | 2026-09-02 06:22:54 | 44.79882 | 21.13939 | 234° | 13km/h | 24222m | 6.7m/s | -50.3°C | 1.8% | 0hPa | 5.6V | 00:00:00 | 00:00:00 | 00:00:00 | |
| OM5KV | 2026-09-02 06:22:46 | 44.79901 | 21.13958 | 187° | 27km/h | 24170m | 6.9m/s | -50.7°C | 1.9% | 0hPa | 5.6V | 00:00:00 | 00:00:00 | 00:00:00 | |
| OM5KV | 2026-09-02 06:22:42 | 44.79921 | 21.13966 | 194° | 18km/h | 24144m | 7.7m/s | -50.7°C | 1.8% | 0hPa | 5.6V | 00:00:00 | 00:00:00 | 00:00:00 | |
| OM5KV | 2026-09-02 06:22:40 | 44.79930 | 21.13966 | 168° | 16km/h | 24133m | 4.3m/s | -50.7°C | 1.8% | 0hPa | 5.6V | 00:00:00 | 00:00:00 | 00:00:00 | |
| OM5KV | 2026-09-02 06:22:29 | 44.79964 | 21.13944 | 103° | 9km/h | 24055m | 8.5m/s | -50.6°C | 1.7% | 0hPa | 5.6V | 00:00:00 | 00:00:00 | 00:00:00 | |
| OM5KV | 2026-09-02 06:22:24 | 44.79977 | 21.13936 | 179° | 22km/h | 24023m | 6.6m/s | -50.8°C | 1.7% | 0hPa | 5.6V | 00:00:00 | 00:00:00 | 00:00:00 | |
| OM5KV | 2026-09-02 06:22:23 | 44.79982 | 21.13934 | 167° | 18km/h | 24015m | 8.0m/s | -50.8°C | 1.7% | 0hPa | 5.6V | 00:00:00 | 00:00:00 | 00:00:00 | |
| OM5KV | 2026-09-02 06:22:21 | 44.79986 | 21.13929 | 83° | 9km/h | 24004m | 4.8m/s | -50.8°C | 1.7% | 0hPa | 5.6V | 00:00:00 | 00:00:00 | 00:00:00 | |
| LZ4TU-5 | 2026-09-02 06:22:19 | 44.79982 | 21.13927 | 342° | 15km/h | 23991m | 7.7m/s | -50.9°C | 1.7% | 0hPa | 5.6V | 00:00:00 | 00:00:00 | 00:00:00 | |
| OM5KV | 2026-09-02 06:22:11 | 44.79990 | 21.13932 | 184° | 16km/h | 23937m | 5.7m/s | -50.9°C | 1.7% | 0hPa | 5.6V | 00:00:00 | 00:00:00 | 00:00:00 | |
| OM5KV | 2026-09-02 06:22:05 | 44.79990 | 21.13941 | 324° | 13km/h | 23898m | 5.0m/s | -51.2°C | 1.8% | 0hPa | 5.6V | 00:00:00 | 00:00:00 | 00:00:00 | |
| OM5KV | 2026-09-02 06:22:00 | 44.80002 | 21.13951 | 207° | 24km/h | 23862m | 7.9m/s | -51.3°C | 1.8% | 0hPa | 5.6V | 00:00:00 | 00:00:00 | 00:00:00 | |
| OE3JTB-15 | 2026-09-02 06:21:58 | 44.80011 | 21.13959 | 223° | 11km/h | 23851m | 6.8m/s | -50.8°C | 0% | 0hPa | 5.6V | 00:00:00 | 00:00:00 | 00:00:00 | |
| OM5KV | 2026-09-02 06:21:47 | 44.80040 | 21.13951 | 135° | 13km/h | 23776m | 5.7m/s | -51.5°C | 1.8% | 0hPa | 5.6V | 00:00:00 | 00:00:00 | 00:00:00 | |
| OM5KV | 2026-09-02 06:21:37 | 44.80044 | 21.13927 | 176° | 16km/h | 23712m | 5.1m/s | -51.8°C | 1.8% | 0hPa | 5.6V | 00:00:00 | 00:00:00 | 00:00:00 | |
| OM5KV | 2026-09-02 06:21:35 | 44.80050 | 21.13924 | 105° | 9km/h | 23699m | 4.8m/s | -51.8°C | 1.8% | 0hPa | 5.6V | 00:00:00 | 00:00:00 | 00:00:00 | |
| OM5KV | 2026-09-02 06:21:31 | 44.80040 | 21.13920 | 354° | 18km/h | 23672m | 6.5m/s | -51.9°C | 1.9% | 0hPa | 5.6V | 00:00:00 | 00:00:00 | 00:00:00 | |
| OM5KV | 2026-09-02 06:21:30 | 44.80036 | 21.13920 | 11° | 15km/h | 23664m | 7.8m/s | -51.9°C | 1.8% | 0hPa | 5.6V | 00:00:00 | 00:00:00 | 00:00:00 | |
| OM5KV | 2026-09-02 06:21:24 | 44.80022 | 21.13918 | 347° | 13km/h | 23626m | 5.4m/s | -52.0°C | 1.9% | 0hPa | 5.6V | 00:00:00 | 00:00:00 | 00:00:00 | |
| OM5KV | 2026-09-02 06:21:19 | 44.80004 | 21.13923 | 317° | 18km/h | 23594m | 5.7m/s | -52.0°C | 1.8% | 0hPa | 5.6V | 00:00:00 | 00:00:00 | 00:00:00 | |
| OM5KV | 2026-09-02 06:21:11 | 44.79993 | 21.13951 | 28° | 11km/h | 23540m | 6.7m/s | -52.2°C | 1.9% | 0hPa | 5.6V | 00:00:00 | 00:00:00 | 00:00:00 | |
| OM5KV | 2026-09-02 06:21:10 | 44.79990 | 21.13950 | 26° | 13km/h | 23534m | 5.5m/s | -52.2°C | 1.9% | 0hPa | 5.6V | 00:00:00 | 00:00:00 | 00:00:00 | |
| OM5KV | 2026-09-02 06:21:05 | 44.79988 | 21.13960 | 268° | 9km/h | 23500m | 6.5m/s | -52.3°C | 1.9% | 0hPa | 5.6V | 00:00:00 | 00:00:00 | 00:00:00 | |
| OM5KV | 2026-09-02 06:21:04 | 44.79988 | 21.13963 | 262° | 9km/h | 23493m | 6.3m/s | -52.3°C | 1.9% | 0hPa | 5.6V | 00:00:00 | 00:00:00 | 00:00:00 | |
| OM5KV | 2026-09-02 06:21:03 | 44.79989 | 21.13966 | 244° | 9km/h | 23487m | 6.8m/s | -52.3°C | 1.9% | 0hPa | 5.6V | 00:00:00 | 00:00:00 | 00:00:00 | |
| OM5KV | 2026-09-02 06:20:59 | 44.79991 | 21.13972 | 18° | 7km/h | 23462m | 7.3m/s | -52.2°C | 1.8% | 0hPa | 5.6V | 00:00:00 | 00:00:00 | 00:00:00 | |
| LZ4TU-5 | 2026-09-02 06:20:54 | 44.79987 | 21.13971 | 0° | 0km/h | 23431m | 7.6m/s | -52.3°C | 1.8% | 0hPa | 5.6V | 00:00:00 | 00:00:00 | 00:00:00 | |
| OM5KV | 2026-09-02 06:20:52 | 44.79988 | 21.13969 | 112° | 7km/h | 23420m | 3.7m/s | -52.3°C | 1.8% | 0hPa | 5.6V | 00:00:00 | 00:00:00 | 00:00:00 | |
| OM5KV | 2026-09-02 06:20:47 | 44.79991 | 21.13956 | 118° | 18km/h | 23381m | 6.0m/s | -52.3°C | 1.8% | 0hPa | 5.6V | 00:00:00 | 00:00:00 | 00:00:00 | |
| OM5KV | 2026-09-02 06:20:40 | 44.79996 | 21.13935 | 145° | 5km/h | 23342m | 6.9m/s | -52.6°C | 1.9% | 0hPa | 5.6V | 00:00:00 | 00:00:00 | 00:00:00 | |
| OM5KV | 2026-09-02 06:20:34 | 44.80001 | 21.13918 | 94° | 16km/h | 23306m | 5.5m/s | -52.8°C | 1.9% | 0hPa | 5.6V | 00:00:00 | 00:00:00 | 00:00:00 | |
| OM5KV | 2026-09-02 06:20:29 | 44.79995 | 21.13882 | 64° | 9km/h | 23275m | 5.6m/s | -52.9°C | 1.9% | 0hPa | 5.6V | 00:00:00 | 00:00:00 | 00:00:00 | |
| OM5KV | 2026-09-02 06:20:28 | 44.79993 | 21.13880 | 27° | 11km/h | 23268m | 6.9m/s | -52.9°C | 1.9% | 0hPa | 5.6V | 00:00:00 | 00:00:00 | 00:00:00 | |
| OE3JTB-15 | 2026-09-02 06:20:26 | 44.79987 | 21.13877 | 25° | 11km/h | 23255m | 6.7m/s | -52.2°C | 0% | 0hPa | 5.6V | 00:00:00 | 00:00:00 | 00:00:00 | |
| OM5KV | 2026-09-02 06:20:22 | 44.79981 | 21.13867 | 44° | 9km/h | 23230m | 5.7m/s | -52.8°C | 1.8% | 0hPa | 5.6V | 00:00:00 | 00:00:00 | 00:00:00 | |
| OM5KV | 2026-09-02 06:20:17 | 44.79967 | 21.13847 | 11° | 18km/h | 23198m | 7.6m/s | -52.8°C | 1.8% | 0hPa | 5.6V | 00:00:00 | 00:00:00 | 00:00:00 | |
| OM5KV | 2026-09-02 06:20:16 | 44.79962 | 21.13847 | 351° | 16km/h | 23194m | 4.6m/s | -52.9°C | 1.8% | 0hPa | 5.6V | 00:00:00 | 00:00:00 | 00:00:00 | |
| OM5KV | 2026-09-02 06:20:11 | 44.79951 | 21.13840 | 54° | 7km/h | 23163m | 5.9m/s | -52.8°C | 1.8% | 0hPa | 5.6V | 00:00:00 | 00:00:00 | 00:00:00 | |
| OM5KV | 2026-09-02 06:20:05 | 44.79938 | 21.13841 | 342° | 22km/h | 23126m | 7.5m/s | -52.9°C | 1.8% | 0hPa | 5.6V | 00:00:00 | 00:00:00 | 00:00:00 | |
| OM5KV | 2026-09-02 06:19:59 | 44.79921 | 21.13841 | 70° | 4km/h | 23086m | 7.2m/s | -53.0°C | 1.8% | 0hPa | 5.6V | 00:00:00 | 00:00:00 | 00:00:00 | |
| OM5KV | 2026-09-02 06:19:53 | 44.79915 | 21.13848 | 334° | 20km/h | 23048m | 8.0m/s | -53.0°C | 1.8% | 0hPa | 5.6V | 00:00:00 | 00:00:00 | 00:00:00 | |
| OM5KV | 2026-09-02 06:19:52 | 44.79910 | 21.13850 | 357° | 26km/h | 23044m | 4.5m/s | -53.0°C | 1.8% | 0hPa | 5.6V | 00:00:00 | 00:00:00 | 00:00:00 | |
| OM5KV | 2026-09-02 06:19:47 | 44.79902 | 21.13843 | 136° | 13km/h | 23008m | 5.5m/s | -52.8°C | 1.7% | 0hPa | 5.6V | 00:00:00 | 00:00:00 | 00:00:00 | |
| OM5KV | 2026-09-02 06:19:40 | 44.79885 | 21.13844 | 1° | 20km/h | 22961m | 7.3m/s | -53.0°C | 1.8% | 0hPa | 5.6V | 00:00:00 | 00:00:00 | 00:00:00 | |
| OM5KV | 2026-09-02 06:19:37 | 44.79879 | 21.13842 | 100° | 7km/h | 22939m | 8.7m/s | -52.9°C | 1.7% | 0hPa | 5.6V | 00:00:00 | 00:00:00 | 00:00:00 | |
| LZ4TU-5 | 2026-09-02 06:19:31 | 44.79870 | 21.13848 | 319° | 22km/h | 22900m | 7.5m/s | -52.8°C | 1.7% | 0hPa | 5.6V | 00:00:00 | 00:00:00 | 00:00:00 | |
| LZ4TU-5 | 2026-09-02 06:19:26 | 44.79857 | 21.13859 | 68° | 4km/h | 22870m | 6.1m/s | -52.7°C | 1.7% | 0hPa | 5.6V | 00:00:00 | 00:00:00 | 00:00:00 | |
| OM5KV | 2026-09-02 06:19:24 | 44.79859 | 21.13858 | 211° | 9km/h | 22858m | 4.2m/s | -52.8°C | 1.7% | 0hPa | 5.6V | 00:00:00 | 00:00:00 | 00:00:00 | |
| OM5KV | 2026-09-02 06:19:22 | 44.79859 | 21.13863 | 310° | 13km/h | 22844m | 8.0m/s | -52.9°C | 1.7% | 0hPa | 5.6V | 00:00:00 | 00:00:00 | 00:00:00 | |
| OM5KV | 2026-09-02 06:19:18 | 44.79840 | 21.13891 | 304° | 27km/h | 22821m | 3.4m/s | -53.0°C | 1.7% | 0hPa | 5.6V | 00:00:00 | 00:00:00 | 00:00:00 | |
| OM5KV | 2026-09-02 06:19:13 | 44.79838 | 21.13898 | 159° | 13km/h | 22787m | 7.0m/s | -52.9°C | 1.7% | 0hPa | 5.6V | 00:00:00 | 00:00:00 | 00:00:00 | |
| OM5KV | 2026-09-02 06:19:11 | 44.79841 | 21.13897 | 0° | 0km/h | 22777m | 5.3m/s | -53.1°C | 1.7% | 0hPa | 5.6V | 00:00:00 | 00:00:00 | 00:00:00 | |
| OM5KV | 2026-09-02 06:19:07 | 44.79835 | 21.13906 | 300° | 16km/h | 22750m | 8.6m/s | -53.3°C | 1.8% | 0hPa | 5.6V | 00:00:00 | 00:00:00 | 00:00:00 | |
| OM5KV | 2026-09-02 06:19:06 | 44.79835 | 21.13911 | 255° | 18km/h | 22744m | 5.7m/s | -53.3°C | 1.8% | 0hPa | 5.6V | 00:00:00 | 00:00:00 | 00:00:00 | |
| OM5KV | 2026-09-02 06:19:00 | 44.79852 | 21.13923 | 124° | 13km/h | 22706m | 5.4m/s | -53.4°C | 1.8% | 0hPa | 5.6V | 00:00:00 | 00:00:00 | 00:00:00 | |
| OM5KV | 2026-09-02 06:18:57 | 44.79852 | 21.13916 | 320° | 5km/h | 22686m | 5.9m/s | -53.3°C | 1.8% | 0hPa | 5.6V | 00:00:00 | 00:00:00 | 00:00:00 | |
| OM5KV | 2026-09-02 06:18:56 | 44.79851 | 21.13918 | 283° | 5km/h | 22680m | 4.9m/s | -53.3°C | 1.8% | 0hPa | 5.6V | 00:00:00 | 00:00:00 | 00:00:00 | |
| OM5KV | 2026-09-02 06:18:55 | 44.79851 | 21.13920 | 258° | 7km/h | 22675m | 5.2m/s | -53.4°C | 1.8% | 0hPa | 5.6V | 00:00:00 | 00:00:00 | 00:00:00 | |
| OM5KV | 2026-09-02 06:18:50 | 44.79860 | 21.13923 | 356° | 5km/h | 22646m | 4.3m/s | -53.5°C | 1.8% | 0hPa | 5.6V | 00:00:00 | 00:00:00 | 00:00:00 | |
| OM5KV | 2026-09-02 06:18:49 | 44.79858 | 21.13923 | 12° | 11km/h | 22638m | 8.4m/s | -53.6°C | 1.8% | 0hPa | 5.6V | 00:00:00 | 00:00:00 | 00:00:00 | |
| OM5KV | 2026-09-02 06:18:43 | 44.79842 | 21.13928 | 258° | 11km/h | 22598m | 8.0m/s | -53.7°C | 1.9% | 0hPa | 5.6V | 00:00:00 | 00:00:00 | 00:00:00 | |
| OM5KV | 2026-09-02 06:18:40 | 44.79846 | 21.13935 | 229° | 4km/h | 22578m | 7.4m/s | -53.4°C | 1.8% | 0hPa | 5.6V | 00:00:00 | 00:00:00 | 00:00:00 | |
| OM5KV | 2026-09-02 06:18:39 | 44.79846 | 21.13935 | 11° | 4km/h | 22572m | 6.3m/s | -53.4°C | 1.8% | 0hPa | 5.6V | 00:00:00 | 00:00:00 | 00:00:00 | |
| OM5KV | 2026-09-02 06:18:38 | 44.79844 | 21.13934 | 8° | 9km/h | 22567m | 4.4m/s | -53.4°C | 1.8% | 0hPa | 5.6V | 00:00:00 | 00:00:00 | 00:00:00 | |
| OM5KV | 2026-09-02 06:18:33 | 44.79846 | 21.13936 | 231° | 11km/h | 22534m | 6.6m/s | -53.3°C | 1.8% | 0hPa | 5.6V | 00:00:00 | 00:00:00 | 00:00:00 | |
| OM5KV | 2026-09-02 06:18:32 | 44.79848 | 21.13939 | 242° | 13km/h | 22529m | 5.3m/s | -53.4°C | 1.8% | 0hPa | 5.6V | 00:00:00 | 00:00:00 | 00:00:00 | |
| OM5KV | 2026-09-02 06:18:29 | 44.79853 | 21.13956 | 256° | 16km/h | 22509m | 7.3m/s | -53.6°C | 1.8% | 0hPa | 5.6V | 00:00:00 | 00:00:00 | 00:00:00 | |
| OM5KV | 2026-09-02 06:18:21 | 44.79861 | 21.13972 | 281° | 9km/h | 22459m | 5.9m/s | -53.8°C | 1.9% | 0hPa | 5.6V | 00:00:00 | 00:00:00 | 00:00:00 | |
| OM5KV | 2026-09-02 06:18:15 | 44.79850 | 21.13967 | 61° | 11km/h | 22422m | 5.2m/s | -53.8°C | 1.9% | 0hPa | 5.6V | 00:00:00 | 00:00:00 | 00:00:00 | |
| OM5KV | 2026-09-02 06:18:04 | 44.79834 | 21.13969 | 69° | 11km/h | 22349m | 8.9m/s | -53.7°C | 1.9% | 0hPa | 5.6V | 00:00:00 | 00:00:00 | 00:00:00 | |
| LZ4TU-5 | 2026-09-02 06:18:00 | 44.79817 | 21.13966 | 342° | 18km/h | 22319m | 5.6m/s | -53.6°C | 1.8% | 0hPa | 5.6V | 00:00:00 | 00:00:00 | 00:00:00 | |
| OM5KV | 2026-09-02 06:17:59 | 44.79817 | 21.13966 | 342° | 18km/h | 22319m | 5.6m/s | -53.6°C | 1.8% | 0hPa | 5.6V | 00:00:00 | 00:00:00 | 00:00:00 | |
| OM5KV | 2026-09-02 06:17:55 | 44.79800 | 21.13962 | 28° | 15km/h | 22292m | 6.3m/s | -53.5°C | 1.8% | 0hPa | 5.6V | 00:00:00 | 00:00:00 | 00:00:00 | |
| OM5KV | 2026-09-02 06:17:53 | 44.79796 | 21.13956 | 57° | 11km/h | 22279m | 7.6m/s | -53.5°C | 1.8% | 0hPa | 5.6V | 00:00:00 | 00:00:00 | 00:00:00 | |
| OM5KV | 2026-09-02 06:17:52 | 44.79794 | 21.13953 | 59° | 11km/h | 22274m | 4.9m/s | -53.4°C | 1.7% | 0hPa | 5.6V | 00:00:00 | 00:00:00 | 00:00:00 | |
| OM5KV | 2026-09-02 06:17:49 | 44.79786 | 21.13952 | 332° | 22km/h | 22253m | 7.2m/s | -53.3°C | 1.7% | 0hPa | 5.6V | 00:00:00 | 00:00:00 | 00:00:00 | |
| OM5KV | 2026-09-02 06:17:43 | 44.79751 | 21.13961 | 357° | 15km/h | 22213m | 6.9m/s | -53.4°C | 1.8% | 0hPa | 5.6V | 00:00:00 | 00:00:00 | 00:00:00 | |
| OE3JTB-15 | 2026-09-02 06:17:31 | 44.79703 | 21.13976 | 322° | 20km/h | 22139m | 8.5m/s | -52.8°C | 0% | 0hPa | 5.6V | 00:00:00 | 00:00:00 | 00:00:00 | |
| OM5KV | 2026-09-02 06:17:30 | 44.79699 | 21.13981 | 317° | 22km/h | 22133m | 6.1m/s | -53.4°C | 1.7% | 0hPa | 5.6V | 00:00:00 | 00:00:00 | 00:00:00 | |
| OM5KV | 2026-09-02 06:17:25 | 44.79681 | 21.13996 | 9° | 7km/h | 22100m | 10.2m/s | -53.9°C | 1.8% | 0hPa | 5.6V | 00:00:00 | 00:00:00 | 00:00:00 | |
| OM5KV | 2026-09-02 06:17:19 | 44.79668 | 21.14006 | 344° | 16km/h | 22061m | 6.4m/s | -54.0°C | 1.9% | 0hPa | 5.6V | 00:00:00 | 00:00:00 | 00:00:00 | |
| OM5KV | 2026-09-02 06:17:14 | 44.79657 | 21.14012 | 246° | 9km/h | 22029m | 8.9m/s | -53.9°C | 1.9% | 0hPa | 5.6V | 00:00:00 | 00:00:00 | 00:00:00 | |
| OM5KV | 2026-09-02 06:17:07 | 44.79666 | 21.14037 | 0° | 0km/h | 21986m | 6.7m/s | -53.9°C | 1.9% | 0hPa | 5.6V | 00:00:00 | 00:00:00 | 00:00:00 | |
| OM5KV | 2026-09-02 06:17:04 | 44.79665 | 21.14041 | 261° | 9km/h | 21968m | 7.7m/s | -53.9°C | 1.9% | 0hPa | 5.6V | 00:00:00 | 00:00:00 | 00:00:00 | |
| OM5KV | 2026-09-02 06:17:03 | 44.79666 | 21.14045 | 247° | 11km/h | 21961m | 6.5m/s | -53.9°C | 1.9% | 0hPa | 5.6V | 00:00:00 | 00:00:00 | 00:00:00 | |
| OM5KV | 2026-09-02 06:17:01 | 44.79669 | 21.14055 | 244° | 22km/h | 21949m | 8.2m/s | -54.0°C | 1.9% | 0hPa | 5.6V | 00:00:00 | 00:00:00 | 00:00:00 | |
| OM5KV | 2026-09-02 06:16:47 | 44.79711 | 21.14106 | 209° | 26km/h | 21862m | 4.1m/s | -53.5°C | 1.7% | 0hPa | 5.6V | 00:00:00 | 00:00:00 | 00:00:00 | |
| OM5KV | 2026-09-02 06:16:46 | 44.79716 | 21.14109 | 203° | 22km/h | 21856m | 6.8m/s | -53.7°C | 1.8% | 0hPa | 5.6V | 00:00:00 | 00:00:00 | 00:00:00 | |
| OM5KV | 2026-09-02 06:16:44 | 44.79723 | 21.14114 | 229° | 7km/h | 21841m | 5.6m/s | -53.7°C | 1.8% | 0hPa | 5.6V | 00:00:00 | 00:00:00 | 00:00:00 | |
| OM5KV | 2026-09-02 06:16:41 | 44.79731 | 21.14121 | 193° | 24km/h | 21822m | 5.9m/s | -53.6°C | 1.8% | 0hPa | 5.6V | 00:00:00 | 00:00:00 | 00:00:00 | |
| OM5KV | 2026-09-02 06:16:38 | 44.79751 | 21.14127 | 198° | 29km/h | 21803m | 5.7m/s | -53.6°C | 1.7% | 0hPa | 5.6V | 00:00:00 | 00:00:00 | 00:00:00 | |
| OM5KV | 2026-09-02 06:16:27 | 44.79824 | 21.14153 | 188° | 31km/h | 21733m | 7.2m/s | -53.7°C | 1.7% | 0hPa | 5.6V | 00:00:00 | 00:00:00 | 00:00:00 | |
| LZ4TU-5 | 2026-09-02 06:16:22 | 44.79860 | 21.14164 | 207° | 18km/h | 21702m | 5.7m/s | -53.7°C | 1.7% | 0hPa | 5.6V | 00:00:00 | 00:00:00 | 00:00:00 | |
| OM5KV | 2026-09-02 06:16:18 | 44.79873 | 21.14163 | 170° | 11km/h | 21677m | 7.2m/s | -53.6°C | 1.6% | 0hPa | 5.6V | 00:00:00 | 00:00:00 | 00:00:00 | |
| OM5KV | 2026-09-02 06:16:15 | 44.79883 | 21.14166 | 187° | 16km/h | 21658m | 7.4m/s | -53.6°C | 1.6% | 0hPa | 5.6V | 00:00:00 | 00:00:00 | 00:00:00 | |
| OM5KV | 2026-09-02 06:16:08 | 44.79929 | 21.14165 | 152° | 15km/h | 21618m | 7.6m/s | -53.8°C | 1.6% | 0hPa | 5.6V | 00:00:00 | 00:00:00 | 00:00:00 | |
| OM5KV | 2026-09-02 06:15:58 | 44.79984 | 21.14143 | 143° | 18km/h | 21557m | 4.9m/s | -54.5°C | 1.7% | 0hPa | 5.6V | 00:00:00 | 00:00:00 | 00:00:00 | |
| OM5KV | 2026-09-02 06:15:52 | 44.80008 | 21.14119 | 163° | 24km/h | 21518m | 7.1m/s | -54.6°C | 1.8% | 0hPa | 5.6V | 00:00:00 | 00:00:00 | 00:00:00 | |
| OM5KV | 2026-09-02 06:15:46 | 44.80031 | 21.14097 | 165° | 11km/h | 21481m | 5.8m/s | -54.7°C | 1.8% | 0hPa | 5.6V | 00:00:00 | 00:00:00 | 00:00:00 | |
| OM5KV | 2026-09-02 06:15:34 | 44.80068 | 21.14036 | 105° | 20km/h | 21404m | 6.8m/s | -54.7°C | 1.8% | 0hPa | 5.6V | 00:00:00 | 00:00:00 | 00:00:00 | |
| OM5KV | 2026-09-02 06:15:31 | 44.80077 | 21.14017 | 135° | 22km/h | 21386m | 6.2m/s | -54.7°C | 1.8% | 0hPa | 5.6V | 00:00:00 | 00:00:00 | 00:00:00 | |
| OM5KV | 2026-09-02 06:15:28 | 44.80086 | 21.14003 | 131° | 15km/h | 21368m | 4.9m/s | -54.7°C | 1.8% | 0hPa | 5.6V | 00:00:00 | 00:00:00 | 00:00:00 | |
| OM5KV | 2026-09-02 06:15:25 | 44.80089 | 21.13995 | 143° | 4km/h | 21350m | 7.1m/s | -54.9°C | 1.8% | 0hPa | 5.6V | 00:00:00 | 00:00:00 | 00:00:00 | |
| OM5KV | 2026-09-02 06:15:22 | 44.80096 | 21.13988 | 138° | 15km/h | 21330m | 7.2m/s | -54.9°C | 1.8% | 0hPa | 5.6V | 00:00:00 | 00:00:00 | 00:00:00 | |
| OM5KV | 2026-09-02 06:15:21 | 44.80099 | 21.13985 | 141° | 15km/h | 21325m | 4.8m/s | -55.0°C | 1.8% | 0hPa | 5.6V | 00:00:00 | 00:00:00 | 00:00:00 | |
| OM5KV | 2026-09-02 06:15:15 | 44.80112 | 21.13961 | 138° | 4km/h | 21287m | 6.8m/s | -54.9°C | 1.8% | 0hPa | 5.6V | 00:00:00 | 00:00:00 | 00:00:00 | |
| OM5KV | 2026-09-02 06:15:14 | 44.80113 | 21.13960 | 130° | 7km/h | 21279m | 7.8m/s | -54.8°C | 1.8% | 0hPa | 5.6V | 00:00:00 | 00:00:00 | 00:00:00 | |
| OM5KV | 2026-09-02 06:15:09 | 44.80124 | 21.13949 | 148° | 18km/h | 21249m | 6.6m/s | -54.7°C | 1.8% | 0hPa | 5.6V | 00:00:00 | 00:00:00 | 00:00:00 | |
| OM5KV | 2026-09-02 06:15:04 | 44.80137 | 21.13933 | 74° | 7km/h | 21216m | 9.4m/s | -54.6°C | 1.7% | 0hPa | 5.6V | 00:00:00 | 00:00:00 | 00:00:00 | |
| OM5KV | 2026-09-02 06:15:03 | 44.80136 | 21.13930 | 85° | 11km/h | 21210m | 5.7m/s | -54.6°C | 1.7% | 0hPa | 5.6V | 00:00:00 | 00:00:00 | 00:00:00 | |
| OM5KV | 2026-09-02 06:14:57 | 44.80152 | 21.13912 | 145° | 24km/h | 21172m | 4.7m/s | -54.4°C | 1.7% | 0hPa | 5.6V | 00:00:00 | 00:00:00 | 00:00:00 | |
| OM5KV | 2026-09-02 06:14:56 | 44.80157 | 21.13908 | 143° | 18km/h | 21168m | 4.5m/s | -54.5°C | 1.7% | 0hPa | 5.6V | 00:00:00 | 00:00:00 | 00:00:00 | |
| OM5KV | 2026-09-02 06:14:52 | 44.80150 | 21.13895 | 45° | 18km/h | 21137m | 4.8m/s | -54.7°C | 1.8% | 0hPa | 5.6V | 00:00:00 | 00:00:00 | 00:00:00 | |
| OM5KV | 2026-09-02 06:14:46 | 44.80160 | 21.13883 | 168° | 20km/h | 21107m | 7.6m/s | -54.5°C | 1.7% | 0hPa | 5.6V | 00:00:00 | 00:00:00 | 00:00:00 | |
| OM5KV | 2026-09-02 06:14:45 | 44.80163 | 21.13882 | 134° | 7km/h | 21103m | 4.5m/s | -54.5°C | 1.7% | 0hPa | 5.6V | 00:00:00 | 00:00:00 | 00:00:00 | |
| OM5KV | 2026-09-02 06:14:34 | 44.80181 | 21.13850 | 148° | 16km/h | 21032m | 5.2m/s | -54.6°C | 1.8% | 0hPa | 5.6V | 00:00:00 | 00:00:00 | 00:00:00 | |
| OE3JTB-15 | 2026-09-02 06:14:32 | 44.80184 | 21.13843 | 92° | 18km/h | 21021m | 6.7m/s | -53.9°C | 0% | 0hPa | 5.6V | 00:00:00 | 00:00:00 | 00:00:00 | |
| OM5KV | 2026-09-02 06:14:05 | 44.80217 | 21.13706 | 149° | 22km/h | 20859m | 4.6m/s | -54.3°C | 1.8% | 0hPa | 5.6V | 00:00:00 | 00:00:00 | 00:00:00 | |
| OE3JTB-15 | 2026-09-02 06:14:00 | 44.80239 | 21.13675 | 106° | 24km/h | 20826m | 5.9m/s | -53.5°C | 0% | 0hPa | 5.6V | 00:00:00 | 00:00:00 | 00:00:00 | |
| OM5KV | 2026-09-02 06:13:59 | 44.80239 | 21.13668 | 85° | 20km/h | 20822m | 4.1m/s | -54.3°C | 1.8% | 0hPa | 5.6V | 00:00:00 | 00:00:00 | 00:00:00 | |
| OM5KV | 2026-09-02 06:13:53 | 44.80251 | 21.13628 | 158° | 22km/h | 20786m | 6.3m/s | -54.3°C | 1.7% | 0hPa | 5.6V | 00:00:00 | 00:00:00 | 00:00:00 | |
| OM5KV | 2026-09-02 06:13:48 | 44.80271 | 21.13593 | 86° | 26km/h | 20749m | 7.4m/s | -54.2°C | 1.7% | 0hPa | 5.6V | 00:00:00 | 00:00:00 | 00:00:00 | |
| OE3JTB-15 | 2026-09-02 06:13:31 | 44.80276 | 21.13464 | 103° | 24km/h | 20655m | 5.6m/s | -53.9°C | 0% | 0hPa | 5.6V | 00:00:00 | 00:00:00 | 00:00:00 | |
| LZ4TU-5 | 2026-09-02 06:13:19 | 44.80275 | 21.13351 | 63° | 35km/h | 20585m | 5.6m/s | -54.7°C | 1.9% | 0hPa | 5.6V | 00:00:00 | 00:00:00 | 00:00:00 | |
| LZ4TU-5 | 2026-09-02 06:13:14 | 44.80271 | 21.13315 | 72° | 20km/h | 20554m | 6.0m/s | -54.7°C | 1.9% | 0hPa | 5.6V | 00:00:00 | 00:00:00 | 00:00:00 | |
| OE3JTB-15 | 2026-09-02 06:12:27 | 44.80135 | 21.12938 | 72° | 11km/h | 20276m | 8.2m/s | -53.2°C | 0% | 0hPa | 5.6V | 00:00:00 | 00:00:00 | 00:00:00 | |
| OE3JTB-15 | 2026-09-02 06:11:58 | 44.80118 | 21.12846 | 96° | 18km/h | 20099m | 7.9m/s | -53.4°C | 0% | 0hPa | 5.6V | 00:00:00 | 00:00:00 | 00:00:00 | |
| LZ4TU-5 | 2026-09-02 06:11:52 | 44.80107 | 21.12815 | 47° | 16km/h | 20065m | 6.6m/s | -54.5°C | 1.9% | 0hPa | 5.6V | 00:00:00 | 00:00:00 | 00:00:00 | |
| LZ4TU-5 | 2026-09-02 06:11:48 | 44.80103 | 21.12790 | 90° | 9km/h | 20036m | 5.1m/s | -54.6°C | 1.9% | 0hPa | 5.6V | 00:00:00 | 00:00:00 | 00:00:00 | |
| OE3JTB-15 | 2026-09-02 06:11:29 | 44.80099 | 21.12693 | 100° | 18km/h | 19926m | 6.6m/s | -53.6°C | 0% | 0hPa | 5.6V | 00:00:00 | 00:00:00 | 00:00:00 | |
| LZ4TU-5 | 2026-09-02 06:10:22 | 44.80057 | 21.12230 | 130° | 13km/h | 19511m | 6.4m/s | -55.1°C | 1.8% | 0hPa | 5.6V | 00:00:00 | 00:00:00 | 00:00:00 | |
| OE3JTB-15 | 2026-09-02 06:10:17 | 44.80057 | 21.12216 | 29° | 26km/h | 19481m | 4.3m/s | -54.3°C | 0% | 0hPa | 5.6V | 00:00:00 | 00:00:00 | 00:00:00 | |
| OE3JTB-15 | 2026-09-02 06:09:45 | 44.80058 | 21.11958 | 70° | 18km/h | 19288m | 6.3m/s | -54.7°C | 0% | 0hPa | 5.6V | 00:00:00 | 00:00:00 | 00:00:00 | |
| OE3JTB-15 | 2026-09-02 06:09:16 | 44.80030 | 21.11784 | 119° | 31km/h | 19120m | 4.6m/s | -55.3°C | 0% | 0hPa | 5.6V | 00:00:00 | 00:00:00 | 00:00:00 | |
| LZ4TU-5 | 2026-09-02 06:08:48 | 44.80074 | 21.11492 | 103° | 51km/h | 18964m | 6.2m/s | -55.7°C | 1.8% | 0hPa | 5.6V | 00:00:00 | 00:00:00 | 00:00:00 | |
| OE3JTB-15 | 2026-09-02 06:08:47 | 44.80077 | 21.11474 | 104° | 49km/h | 18959m | 4.8m/s | -54.9°C | 0% | 0hPa | 5.6V | 00:00:00 | 00:00:00 | 00:00:00 | |
| LZ4TU-5 | 2026-09-02 06:08:44 | 44.80080 | 21.11420 | 83° | 47km/h | 18941m | 5.6m/s | -55.8°C | 1.8% | 0hPa | 5.6V | 00:00:00 | 00:00:00 | 00:00:00 | |
| OE3JTB-15 | 2026-09-02 06:08:18 | 44.80003 | 21.10990 | 66° | 47km/h | 18791m | 8.1m/s | -55.8°C | 0% | 0hPa | 5.6V | 00:00:00 | 00:00:00 | 00:00:00 | |
| OE3JTB-15 | 2026-09-02 06:07:45 | 44.79797 | 21.10507 | 56° | 33km/h | 18599m | 7.2m/s | -55.5°C | 0% | 0hPa | 5.6V | 00:00:00 | 00:00:00 | 00:00:00 | |
| LZ4TU-5 | 2026-09-02 06:07:17 | 44.79665 | 21.10235 | 56° | 26km/h | 18430m | 6.4m/s | -56.5°C | 2.3% | 0hPa | 5.6V | 00:00:00 | 00:00:00 | 00:00:00 | |
| OE3JTB-15 | 2026-09-02 06:07:15 | 44.79660 | 21.10219 | 78° | 33km/h | 18418m | 5.8m/s | -55.6°C | 0% | 0hPa | 5.6V | 00:00:00 | 00:00:00 | 00:00:00 | |
| LZ4TU-5 | 2026-09-02 06:07:12 | 44.79658 | 21.10195 | 88° | 26km/h | 18399m | 6.3m/s | -56.4°C | 2.3% | 0hPa | 5.6V | 00:00:00 | 00:00:00 | 00:00:00 | |
| OE3JTB-15 | 2026-09-02 06:06:46 | 44.79630 | 21.09888 | 75° | 42km/h | 18245m | 6.0m/s | -55.3°C | 0% | 0hPa | 5.6V | 00:00:00 | 00:00:00 | 00:00:00 | |
| OE3JTB-15 | 2026-09-02 06:06:17 | 44.79556 | 21.09475 | 86° | 40km/h | 18074m | 5.5m/s | -55.0°C | 0% | 0hPa | 5.6V | 00:00:00 | 00:00:00 | 00:00:00 | |
| OE3JTB-15 | 2026-09-02 06:05:48 | 44.79512 | 21.09068 | 80° | 38km/h | 17905m | 5.4m/s | -56.2°C | 0% | 0hPa | 5.6V | 00:00:00 | 00:00:00 | 00:00:00 | |
| LZ4TU-5 | 2026-09-02 06:05:47 | 44.79505 | 21.09043 | 59° | 42km/h | 17894m | 5.0m/s | -57.3°C | 2.2% | 0hPa | 5.6V | 00:00:00 | 00:00:00 | 00:00:00 | |
| LZ4TU-5 | 2026-09-02 06:05:42 | 44.79484 | 21.08988 | 68° | 44km/h | 17871m | 6.3m/s | -57.3°C | 2.2% | 0hPa | 5.6V | 00:00:00 | 00:00:00 | 00:00:00 | |
| LZ4TU-5 | 2026-09-02 06:04:23 | 44.79275 | 21.08333 | 123° | 40km/h | 17392m | 6.6m/s | -57.6°C | 2.5% | 0hPa | 5.6V | 00:00:00 | 00:00:00 | 00:00:00 | |
| LZ4TU-5 | 2026-09-02 06:04:19 | 44.79303 | 21.08286 | 135° | 42km/h | 17368m | 7.1m/s | -57.6°C | 2.5% | 0hPa | 5.6V | 00:00:00 | 00:00:00 | 00:00:00 | |
| OE3JTB-15 | 2026-09-02 06:04:10 | 44.79337 | 21.08172 | 113° | 42km/h | 17314m | 6.4m/s | -56.5°C | 0% | 0hPa | 5.6V | 00:00:00 | 00:00:00 | 00:00:00 | |
| LZ4TU-5 | 2026-09-02 06:02:56 | 44.79504 | 21.07089 | 94° | 31km/h | 16899m | 5.5m/s | -58.6°C | 2.6% | 0hPa | 0V | 00:00:00 | 00:00:00 | 00:00:00 | |
| LZ4TU-5 | 2026-09-02 06:02:51 | 44.79505 | 21.07015 | 98° | 49km/h | 16872m | 4.7m/s | -58.7°C | 2.6% | 0hPa | 0V | 00:00:00 | 00:00:00 | 00:00:00 | |
| LZ4TU-5 | 2026-09-02 06:01:11 | 44.79315 | 21.05448 | 96° | 26km/h | 16292m | 6.7m/s | -55.9°C | 3.1% | 0hPa | 0V | 00:00:00 | 00:00:00 | 00:00:00 | |
| LZ4TU-5 | 2026-09-02 06:01:07 | 44.79305 | 21.05406 | 49° | 33km/h | 16270m | 4.7m/s | -55.7°C | 3.1% | 0hPa | 0V | 00:00:00 | 00:00:00 | 00:00:00 | |
| LZ4TU-5 | 2026-09-02 05:59:43 | 44.79198 | 21.04613 | 95° | 53km/h | 15768m | 8.4m/s | -55.6°C | 3.1% | 0hPa | 0V | 00:00:00 | 00:00:00 | 00:00:00 | |
| LZ4TU-5 | 2026-09-02 05:59:39 | 44.79200 | 21.04547 | 86° | 51km/h | 15743m | 6.3m/s | -55.9°C | 3.2% | 0hPa | 0V | 00:00:00 | 00:00:00 | 00:00:00 | |
| LZ4TU-5 | 2026-09-02 05:58:19 | 44.79246 | 21.02707 | 92° | 58km/h | 15286m | 5.6m/s | -55.2°C | 3.7% | 0hPa | 0V | 00:00:00 | 00:00:00 | 00:00:00 | |
| LZ4TU-5 | 2026-09-02 05:58:15 | 44.79247 | 21.02617 | 92° | 69km/h | 15264m | 5.7m/s | -55.2°C | 3.6% | 0hPa | 0V | 00:00:00 | 00:00:00 | 00:00:00 | |
| LZ4TU-5 | 2026-09-02 05:56:55 | 44.79093 | 21.00431 | 81° | 80km/h | 14808m | 4.5m/s | -55.1°C | 5.0% | 0hPa | 0V | 00:00:00 | 00:00:00 | 00:00:00 | |
| LZ4TU-5 | 2026-09-02 05:56:51 | 44.79078 | 21.00309 | 86° | 91km/h | 14786m | 5.6m/s | -55.1°C | 5.1% | 0hPa | 0V | 00:00:00 | 00:00:00 | 00:00:00 | |
| LZ4TU-5 | 2026-09-02 05:55:18 | 44.78908 | 20.97285 | 89° | 97km/h | 14310m | 4.5m/s | -56.8°C | 5.9% | 0hPa | 0V | 00:00:00 | 00:00:00 | 00:00:00 | |
| LZ4TU-5 | 2026-09-02 05:55:13 | 44.78917 | 20.97095 | 97° | 115km/h | 14283m | 4.7m/s | -57.0°C | 6.0% | 0hPa | 0V | 00:00:00 | 00:00:00 | 00:00:00 | |
| LZ4TU-5 | 2026-09-02 05:53:37 | 44.78459 | 20.93536 | 79° | 120km/h | 13747m | 4.8m/s | -58.6°C | 9.6% | 0hPa | 0V | 00:00:00 | 00:00:00 | 00:00:00 | |
| LZ4TU-5 | 2026-09-02 05:53:33 | 44.78436 | 20.93372 | 81° | 117km/h | 13726m | 4.2m/s | -58.8°C | 9.8% | 0hPa | 0V | 00:00:00 | 00:00:00 | 00:00:00 | |
| LZ4TU-5 | 2026-09-02 05:52:12 | 44.77815 | 20.90113 | 75° | 120km/h | 13266m | 6.6m/s | -57.2°C | 15.0% | 0hPa | 0V | 00:00:00 | 00:00:00 | 00:00:00 | |
| LZ4TU-5 | 2026-09-02 05:52:07 | 44.77766 | 20.89918 | 71° | 111km/h | 13240m | 4.7m/s | -57.4°C | 15.6% | 0hPa | 0V | 00:00:00 | 00:00:00 | 00:00:00 | |
| LZ4TU-5 | 2026-09-02 05:50:21 | 44.76960 | 20.85588 | 81° | 124km/h | 12641m | 5.5m/s | -57.7°C | 23.7% | 0hPa | 0V | 00:00:00 | 00:00:00 | 00:00:00 | |
| LZ4TU-5 | 2026-09-02 05:50:16 | 44.76934 | 20.85379 | 77° | 115km/h | 12609m | 5.5m/s | -57.6°C | 23.7% | 0hPa | 0V | 00:00:00 | 00:00:00 | 00:00:00 | |
| LZ4TU-5 | 2026-09-02 05:48:13 | 44.76186 | 20.80161 | 80° | 106km/h | 11889m | 4.4m/s | -54.2°C | 24.1% | 0hPa | 0V | 00:00:00 | 00:00:00 | 00:00:00 | |
| LZ4TU-5 | 2026-09-02 05:48:07 | 44.76158 | 20.79976 | 82° | 113km/h | 11863m | 6.0m/s | -54.0°C | 24.2% | 0hPa | 0V | 00:00:00 | 00:00:00 | 00:00:00 | |
| LZ4TU-5 | 2026-09-02 05:46:09 | 44.75588 | 20.75812 | 93° | 99km/h | 11213m | 4.2m/s | -49.7°C | 23.0% | 0hPa | 0V | 00:00:00 | 00:00:00 | 00:00:00 | |
| LZ4TU-5 | 2026-09-02 05:46:04 | 44.75573 | 20.75636 | 73° | 102km/h | 11187m | 3.9m/s | -49.6°C | 22.7% | 0hPa | 0V | 00:00:00 | 00:00:00 | 00:00:00 | |
| LZ4TU-5 | 2026-09-02 05:44:07 | 44.75361 | 20.72106 | 90° | 82km/h | 10506m | 3.8m/s | -45.2°C | 39.2% | 0hPa | 0V | 00:00:00 | 00:00:00 | 00:00:00 | |
| LZ4TU-5 | 2026-09-02 05:44:02 | 44.75359 | 20.71964 | 89° | 69km/h | 10476m | 5.6m/s | -45.1°C | 40.5% | 0hPa | 0V | 00:00:00 | 00:00:00 | 00:00:00 | |
| LZ4TU-5 | 2026-09-02 05:42:32 | 44.75236 | 20.69606 | 83° | 80km/h | 9964m | 3.5m/s | -41.0°C | 15.5% | 0hPa | 0V | 00:00:00 | 00:00:00 | 00:00:00 | |
| LZ4TU-5 | 2026-09-02 05:42:28 | 44.75233 | 20.69497 | 96° | 73km/h | 9943m | 5.6m/s | -40.8°C | 15.0% | 0hPa | 0V | 00:00:00 | 00:00:00 | 00:00:00 | |
| LZ4TU-5 | 2026-09-02 05:41:06 | 44.75241 | 20.67081 | 86° | 99km/h | 9483m | 7.3m/s | -37.8°C | 22.0% | 0hPa | 0V | 00:00:00 | 00:00:00 | 00:00:00 | |
| LZ4TU-5 | 2026-09-02 05:41:01 | 44.75237 | 20.66918 | 98° | 73km/h | 9458m | 5.1m/s | -37.6°C | 24.1% | 0hPa | 0V | 00:00:00 | 00:00:00 | 00:00:00 | |
| LZ4TU-5 | 2026-09-02 05:39:37 | 44.75031 | 20.64233 | 82° | 84km/h | 8978m | 6.4m/s | -34.3°C | 29.7% | 0hPa | 0V | 00:00:00 | 00:00:00 | 00:00:00 | |
| LZ4TU-5 | 2026-09-02 05:39:33 | 44.75018 | 20.64119 | 86° | 91km/h | 8955m | 6.6m/s | -34.3°C | 30.6% | 0hPa | 0V | 00:00:00 | 00:00:00 | 00:00:00 | |
| LZ4TU-5 | 2026-09-02 05:38:16 | 44.74850 | 20.61834 | 88° | 75km/h | 8504m | 6.4m/s | -31.0°C | 32.0% | 0hPa | 0V | 00:00:00 | 00:00:00 | 00:00:00 | |
| LZ4TU-5 | 2026-09-02 05:38:11 | 44.74848 | 20.61669 | 85° | 100km/h | 8478m | 4.2m/s | -30.7°C | 31.1% | 0hPa | 0V | 00:00:00 | 00:00:00 | 00:00:00 | |
| LZ4TU-5 | 2026-09-02 05:36:49 | 44.74687 | 20.59319 | 88° | 75km/h | 8010m | 4.9m/s | -27.2°C | 31.3% | 0hPa | 0V | 00:00:00 | 00:00:00 | 00:00:00 | |
| LZ4TU-5 | 2026-09-02 05:36:44 | 44.74686 | 20.59145 | 88° | 93km/h | 7985m | 4.6m/s | -26.9°C | 30.5% | 0hPa | 0V | 00:00:00 | 00:00:00 | 00:00:00 | |
| LZ4TU-5 | 2026-09-02 05:35:32 | 44.74644 | 20.57276 | 94° | 86km/h | 7553m | 6.7m/s | -23.5°C | 29.2% | 0hPa | 0V | 00:00:00 | 00:00:00 | 00:00:00 | |
| LZ4TU-5 | 2026-09-02 05:35:27 | 44.74644 | 20.57128 | 98° | 78km/h | 7520m | 6.9m/s | -23.3°C | 27.8% | 0hPa | 0V | 00:00:00 | 00:00:00 | 00:00:00 |